Time;durP1;ratioP1;P1;durP2;ratioP2;P2;SDS_P1;SDS_P2;PMS_P1;PMS_P2;Temp;Humidity;BMP_temperature;BMP_pressure;BME280_temperature;BME280_humidity;BME280_pressure;Samples;Min_cycle;Max_cycle;Signal;HPM_P1;HPM_P2
2022/10/27 00:00:51;;;;;;;5.53;1.40;;;;;;;12.44;100.00;100055.84;4918488;29;20056;-89
2022/10/27 00:03:18;;;;;;;6.97;1.40;;;;;;;12.21;100.00;100053.66;4914288;29;20115;-89
2022/10/27 00:05:46;;;;;;;4.63;1.40;;;;;;;12.23;100.00;100017.66;4914400;29;20135;-90
2022/10/27 00:08:15;;;;;;;5.88;1.60;;;;;;;12.50;100.00;100038.88;4924348;29;20063;-91
2022/10/27 00:10:43;;;;;;;9.18;2.17;;;;;;;12.37;100.00;100036.09;4920731;29;20447;-89
2022/10/27 00:13:12;;;;;;;6.13;1.50;;;;;;;12.22;100.00;100013.38;4922971;29;20138;-89
2022/10/27 00:15:39;;;;;;;9.70;1.65;;;;;;;12.20;100.00;100023.94;4915140;29;20066;-90
2022/10/27 00:18:10;;;;;;;8.52;1.60;;;;;;;12.26;100.00;100033.25;4913687;29;20052;-90
2022/10/27 00:20:37;;;;;;;5.93;1.90;;;;;;;12.37;100.00;100036.09;4914847;29;20459;-95
2022/10/27 00:23:04;;;;;;;11.30;2.00;;;;;;;12.13;100.00;99999.81;4916508;29;20083;-95
2022/10/27 00:25:31;;;;;;;7.10;1.60;;;;;;;12.35;100.00;100049.31;4915357;29;20120;-91
2022/10/27 00:27:58;;;;;;;10.43;2.10;;;;;;;12.03;100.00;99998.63;4914207;29;20052;-91
2022/10/27 00:30:24;;;;;;;6.30;1.52;;;;;;;12.44;100.00;100047.94;4914930;29;20107;-90
2022/10/27 00:32:52;;;;;;;9.73;1.75;;;;;;;12.43;100.00;100041.03;4901586;29;20112;-90
2022/10/27 00:35:20;;;;;;;8.88;1.85;;;;;;;12.27;100.00;100051.53;4911450;29;20060;-90
2022/10/27 00:37:46;;;;;;;8.77;1.55;;;;;;;12.13;100.00;100047.06;4909808;29;20562;-89
2022/10/27 00:40:13;;;;;;;6.65;1.67;;;;;;;12.42;100.00;100051.63;4895530;29;20056;-90
2022/10/27 00:42:40;;;;;;;4.47;1.40;;;;;;;12.42;100.00;100049.81;4917662;29;20443;-90
2022/10/27 00:45:08;;;;;;;8.65;1.73;;;;;;;11.90;100.00;100000.22;4895954;29;20061;-90
2022/10/27 00:47:37;;;;;;;9.60;2.75;;;;;;;12.04;100.00;100034.44;4911452;29;20056;-89
2022/10/27 00:50:11;;;;;;;9.07;2.28;;;;;;;12.29;100.00;100068.03;4911218;29;20056;-91
2022/10/27 00:52:45;;;;;;;7.32;1.75;;;;;;;12.08;100.00;100074.47;4917986;29;20051;-90
2022/10/27 00:55:16;;;;;;;6.88;1.40;;;;;;;12.13;100.00;100089.03;4914573;29;20498;-90
2022/10/27 00:57:47;;;;;;;9.43;1.75;;;;;;;12.09;100.00;100066.53;4902041;29;20074;-91
2022/10/27 01:00:15;;;;;;;7.75;1.80;;;;;;;12.04;100.00;100075.56;4917346;29;20067;-90
2022/10/27 01:02:43;;;;;;;7.80;1.60;;;;;;;11.98;100.00;100091.63;4917765;29;20052;-90
2022/10/27 01:05:22;;;;;;;8.15;2.15;;;;;;;12.24;100.00;100113.84;4917696;29;20056;-90
2022/10/27 01:07:51;;;;;;;12.95;2.33;;;;;;;11.90;100.00;100087.66;4918154;29;20079;-90
2022/10/27 01:10:18;;;;;;;10.73;1.38;;;;;;;12.18;100.00;100120.25;4917452;29;20514;-90
2022/10/27 01:12:45;;;;;;;5.18;1.52;;;;;;;12.23;100.00;100130.53;4916686;29;20051;-90
2022/10/27 01:15:13;;;;;;;11.02;1.80;;;;;;;12.02;100.00;100114.16;4901370;29;20059;-91
2022/10/27 01:17:59;;;;;;;8.35;1.60;;;;;;;12.19;100.00;100108.00;4918289;29;20052;-91
2022/10/27 01:21:00;;;;;;;6.82;1.88;;;;;;;11.96;100.00;100075.97;4916887;29;20056;-90
2022/10/27 01:23:52;;;;;;;6.40;1.90;;;;;;;12.35;100.00;100119.34;4919902;29;20544;-91
2022/10/27 01:26:24;;;;;;;9.65;2.05;;;;;;;12.18;100.00;100122.88;4916069;29;20115;-91
2022/10/27 01:29:08;;;;;;;8.77;1.73;;;;;;;12.02;100.00;100098.41;4918000;29;20740;-90
2022/10/27 01:31:47;;;;;;;7.15;1.77;;;;;;;12.11;100.00;100105.78;4917224;29;20048;-91
2022/10/27 01:34:35;;;;;;;7.65;1.77;;;;;;;12.49;100.00;100131.72;4916682;29;20052;-90
2022/10/27 01:37:26;;;;;;;6.57;1.52;;;;;;;12.46;100.00;100137.97;4906227;29;20048;-90
2022/10/27 01:40:11;;;;;;;6.65;1.33;;;;;;;12.54;100.00;100140.19;4916452;29;20360;-89
2022/10/27 01:42:49;;;;;;;7.32;1.83;;;;;;;12.36;100.00;100121.06;4916717;29;20463;-89
2022/10/27 01:45:30;;;;;;;5.05;1.70;;;;;;;12.52;100.00;100145.53;4916410;29;20100;-89
2022/10/27 01:47:58;;;;;;;8.77;1.67;;;;;;;12.41;100.00;100124.28;4915687;29;20571;-88
2022/10/27 01:50:38;;;;;;;6.95;1.83;;;;;;;12.44;100.00;100144.25;4916268;29;20396;-89
2022/10/27 01:53:26;;;;;;;4.57;1.58;;;;;;;12.16;100.00;100111.63;4913395;29;20167;-89
2022/10/27 01:56:01;;;;;;;9.32;2.20;;;;;;;12.31;100.00;100151.97;4916120;29;20060;-89
2022/10/27 01:58:36;;;;;;;10.77;2.30;;;;;;;12.27;100.00;100168.78;4903689;29;20060;-89
2022/10/27 02:01:25;;;;;;;13.18;2.50;;;;;;;12.17;100.00;100168.44;4913278;29;20055;-90
2022/10/27 02:04:21;;;;;;;8.10;1.90;;;;;;;12.02;100.00;100156.13;4916212;29;20048;-91
2022/10/27 02:06:52;;;;;;;7.78;1.83;;;;;;;12.13;100.00;100162.50;4914922;29;20147;-90
2022/10/27 02:09:29;;;;;;;11.15;2.22;;;;;;;11.88;100.00;100168.19;4916523;29;20402;-90
2022/10/27 02:11:59;;;;;;;15.15;2.35;;;;;;;12.19;100.00;100178.88;4914666;29;20044;-90
2022/10/27 02:14:26;;;;;;;7.38;1.98;;;;;;;12.22;100.00;100203.16;4916635;29;20040;-90
2022/10/27 02:16:54;;;;;;;17.50;3.25;;;;;;;12.09;100.00;100175.88;4913808;29;20444;-90
2022/10/27 02:19:25;;;;;;;12.52;2.35;;;;;;;11.89;100.00;100156.75;4916229;29;20075;-91
2022/10/27 02:21:55;;;;;;;11.05;1.92;;;;;;;12.28;100.00;100215.13;4916701;29;20112;-90
2022/10/27 02:24:22;;;;;;;9.63;2.15;;;;;;;11.98;100.00;100172.97;4916038;29;20052;-89
2022/10/27 02:27:07;;;;;;;7.65;1.98;;;;;;;12.28;100.00;100217.75;4918446;29;20056;-96
2022/10/27 02:29:46;;;;;;;7.95;1.83;;;;;;;12.10;100.00;100222.19;4918642;29;20059;-94
2022/10/27 02:32:17;;;;;;;10.50;2.40;;;;;;;12.05;100.00;100224.19;4918879;29;20104;-94
2022/10/27 02:34:46;;;;;;;9.52;2.22;;;;;;;12.25;100.00;100224.00;4918396;29;20048;-94
2022/10/27 02:37:40;;;;;;;10.77;2.05;;;;;;;12.34;100.00;100220.03;4918477;29;20447;-95
2022/10/27 02:40:08;;;;;;;5.95;1.30;;;;;;;12.31;100.00;100212.34;4916651;29;20063;-94
2022/10/27 02:42:35;;;;;;;6.65;1.50;;;;;;;12.35;100.00;100222.56;4918025;29;20100;-96
2022/10/27 02:45:01;;;;;;;6.63;1.50;;;;;;;12.19;100.00;100226.94;4918064;29;20056;-96
2022/10/27 02:47:28;;;;;;;7.30;1.80;;;;;;;12.16;100.00;100211.34;4915829;29;20103;-88
2022/10/27 02:49:55;;;;;;;5.68;1.42;;;;;;;12.32;100.00;100261.28;4915481;29;20048;-89
2022/10/27 02:52:21;;;;;;;7.38;1.60;;;;;;;11.97;100.00;100242.97;4912654;29;20072;-89
2022/10/27 02:54:48;;;;;;;7.45;1.90;;;;;;;11.96;100.00;100230.75;4912179;29;20060;-89
2022/10/27 02:57:16;;;;;;;10.40;1.83;;;;;;;12.15;100.00;100256.91;4912929;29;20615;-89
2022/10/27 02:59:43;;;;;;;12.18;2.05;;;;;;;12.24;100.00;100261.69;4920329;29;20051;-90
2022/10/27 03:02:13;;;;;;;5.78;1.70;;;;;;;12.48;100.00;100284.94;4915424;29;20048;-89
2022/10/27 03:04:40;;;;;;;10.75;2.13;;;;;;;12.27;100.00;100279.03;4899500;29;20055;-89
2022/10/27 03:07:07;;;;;;;7.80;1.90;;;;;;;12.29;100.00;100275.41;4914133;29;20063;-89
2022/10/27 03:09:33;;;;;;;8.48;1.70;;;;;;;12.24;100.00;100260.84;4911216;29;20052;-89
2022/10/27 03:12:00;;;;;;;7.90;1.77;;;;;;;12.44;100.00;100267.66;4910991;29;20109;-89
2022/10/27 03:14:27;;;;;;;8.23;1.85;;;;;;;12.35;100.00;100276.88;4913300;29;20055;-89
2022/10/27 03:16:53;;;;;;;6.80;1.60;;;;;;;12.41;100.00;100279.19;4924451;29;20056;-90
2022/10/27 03:19:20;;;;;;;7.07;1.30;;;;;;;12.44;100.00;100297.38;4917532;29;20107;-89
2022/10/27 03:21:47;;;;;;;5.95;1.73;;;;;;;12.44;100.00;100281.63;4899263;29;20052;-90
2022/10/27 03:24:13;;;;;;;6.18;1.35;;;;;;;12.57;100.00;100302.88;4914946;29;20107;-90
2022/10/27 03:26:40;;;;;;;6.78;1.45;;;;;;;12.46;100.00;100300.78;4911808;29;20056;-90
2022/10/27 03:29:07;;;;;;;10.82;2.00;;;;;;;12.46;100.00;100297.31;4912245;29;20112;-90
2022/10/27 03:31:34;;;;;;;8.18;1.52;;;;;;;12.58;100.00;100311.56;4914910;29;20119;-90
2022/10/27 03:34:00;;;;;;;8.88;1.90;;;;;;;12.58;100.00;100324.72;4914772;29;20056;-90
2022/10/27 03:36:27;;;;;;;7.53;1.75;;;;;;;12.50;100.00;100306.72;4914573;29;20055;-90
2022/10/27 03:38:54;;;;;;;12.45;2.25;;;;;;;12.35;100.00;100303.13;4910661;29;20052;-89
2022/10/27 03:41:21;;;;;;;7.38;1.90;;;;;;;12.66;100.00;100339.13;4900375;29;20045;-90
2022/10/27 03:43:48;;;;;;;8.15;1.95;;;;;;;12.49;100.00;100320.78;4914422;29;20059;-90
2022/10/27 03:46:15;;;;;;;9.95;2.45;;;;;;;12.37;100.00;100279.41;4904390;29;20072;-89
2022/10/27 03:48:41;;;;;;;4.82;1.45;;;;;;;12.69;100.00;100343.38;4914551;29;20455;-90
2022/10/27 03:51:08;;;;;;;8.05;1.90;;;;;;;12.53;100.00;100317.91;4914757;29;20056;-90
2022/10/27 03:53:35;;;;;;;9.50;1.70;;;;;;;12.39;100.00;100309.06;4914433;29;20107;-89
2022/10/27 03:56:02;;;;;;;8.02;2.05;;;;;;;12.29;100.00;100278.03;4923359;29;20478;-90
2022/10/27 03:58:29;;;;;;;7.95;2.00;;;;;;;12.70;100.00;100326.69;4927597;29;20048;-90
2022/10/27 04:01:05;;;;;;;11.25;2.13;;;;;;;12.37;100.00;100303.88;4899675;29;20052;-90
2022/10/27 04:03:32;;;;;;;9.15;1.92;;;;;;;12.49;100.00;100340.00;4914605;29;20130;-90
2022/10/27 04:05:59;;;;;;;17.33;3.10;;;;;;;11.93;100.00;100307.00;4916493;29;20051;-90
2022/10/27 04:08:25;;;;;;;9.98;2.50;;;;;;;12.34;100.00;100343.41;4914782;29;20088;-90
2022/10/27 04:10:52;;;;;;;10.18;2.20;;;;;;;12.25;100.00;100339.50;4916311;29;20099;-90
2022/10/27 04:13:19;;;;;;;9.02;2.08;;;;;;;12.17;100.00;100290.97;4919302;29;20111;-90
2022/10/27 04:15:46;;;;;;;11.70;2.45;;;;;;;12.27;100.00;100324.53;4915363;29;20052;-90
2022/10/27 04:18:12;;;;;;;12.43;2.20;;;;;;;12.41;100.00;100339.56;4913870;29;20107;-90
2022/10/27 04:20:39;;;;;;;9.20;2.15;;;;;;;12.35;100.00;100332.00;4916529;29;20119;-89
2022/10/27 04:23:06;;;;;;;11.18;2.13;;;;;;;12.18;100.00;100327.59;4926365;29;20464;-93
2022/10/27 04:25:34;;;;;;;17.00;2.75;;;;;;;12.38;100.00;100357.22;4915704;29;20479;-88
2022/10/27 04:28:05;;;;;;;13.35;2.58;;;;;;;12.40;100.00;100351.00;4917165;29;20495;-89
2022/10/27 04:30:32;;;;;;;10.30;2.25;;;;;;;12.11;100.00;100298.22;4917923;29;20143;-88
2022/10/27 04:32:59;;;;;;;9.40;2.00;;;;;;;12.10;100.00;100324.53;4914039;29;20051;-89
2022/10/27 04:35:26;;;;;;;8.35;2.25;;;;;;;12.08;100.00;100331.63;4911470;29;20052;-89
2022/10/27 04:37:56;;;;;;;9.70;2.05;;;;;;;12.04;100.00;100328.31;4917127;29;20170;-89
2022/10/27 04:40:23;;;;;;;7.78;2.13;;;;;;;12.23;100.00;100367.59;4917879;29;20111;-89
2022/10/27 04:42:49;;;;;;;7.05;1.50;;;;;;;12.21;100.00;100355.47;4918370;29;20052;-89
2022/10/27 04:45:16;;;;;;;8.55;1.73;;;;;;;12.03;100.00;100358.09;4917794;29;20059;-89
2022/10/27 04:47:43;;;;;;;8.25;1.73;;;;;;;12.21;100.00;100377.31;4918948;29;20055;-89
2022/10/27 04:50:12;;;;;;;14.13;2.42;;;;;;;12.05;100.00;100358.03;4902370;29;20480;-89
2022/10/27 04:52:39;;;;;;;13.52;1.90;;;;;;;12.13;100.00;100364.59;4908745;29;20108;-89
2022/10/27 04:55:10;;;;;;;10.38;2.58;;;;;;;12.04;100.00;100348.44;4917625;29;20059;-88
2022/10/27 04:57:36;;;;;;;11.00;2.08;;;;;;;12.02;100.00;100340.63;4913895;29;20063;-88
2022/10/27 05:00:03;;;;;;;15.80;2.42;;;;;;;12.17;100.00;100364.44;4916829;29;20055;-88
2022/10/27 05:02:30;;;;;;;14.15;2.97;;;;;;;12.11;100.00;100368.19;4918607;29;20052;-89
2022/10/27 05:05:03;;;;;;;19.15;4.38;;;;;;;12.08;100.00;100369.22;4918512;29;20483;-90
2022/10/27 05:07:30;;;;;;;11.13;2.13;;;;;;;12.18;100.00;100364.34;4917640;29;20052;-91
2022/10/27 05:09:56;;;;;;;20.85;4.13;;;;;;;12.04;100.00;100374.69;4913514;29;20057;-90
2022/10/27 05:12:23;;;;;;;14.13;3.53;;;;;;;11.75;100.00;100356.78;4909226;29;20459;-91
2022/10/27 05:14:50;;;;;;;25.25;3.65;;;;;;;11.88;100.00;100387.66;4917403;29;20539;-90
2022/10/27 05:17:17;;;;;;;15.10;2.88;;;;;;;11.83;100.00;100343.31;4917249;29;20048;-90
2022/10/27 05:19:45;;;;;;;16.10;3.22;;;;;;;11.99;100.00;100337.31;4916684;29;20407;-90
2022/10/27 05:22:12;;;;;;;15.35;2.92;;;;;;;12.03;100.00;100331.00;4898617;29;20052;-90
2022/10/27 05:24:38;;;;;;;21.92;3.72;;;;;;;11.82;100.00;100335.50;4918241;29;20523;-93
2022/10/27 05:27:05;;;;;;;18.23;3.22;;;;;;;11.72;100.00;100312.38;4917370;29;20112;-91
2022/10/27 05:29:32;;;;;;;13.32;2.75;;;;;;;11.87;100.00;100341.38;4918987;29;20060;-92
2022/10/27 05:31:59;;;;;;;12.38;3.22;;;;;;;11.85;100.00;100365.06;4918488;29;20452;-96
2022/10/27 05:34:25;;;;;;;16.48;3.78;;;;;;;11.89;100.00;100352.66;4919844;29;20127;-95
2022/10/27 05:36:52;;;;;;;12.75;3.38;;;;;;;11.93;100.00;100336.72;4919644;29;20540;-94
2022/10/27 05:39:19;;;;;;;14.63;2.72;;;;;;;12.01;100.00;100352.06;4923213;29;20138;-96
2022/10/27 05:41:46;;;;;;;16.42;3.42;;;;;;;11.93;100.00;100355.09;4923557;29;20063;-91
2022/10/27 05:44:12;;;;;;;13.02;2.72;;;;;;;11.99;100.00;100366.19;4918545;29;20063;-91
2022/10/27 05:46:39;;;;;;;11.65;2.55;;;;;;;11.90;100.00;100328.13;4917663;29;20059;-92
2022/10/27 05:49:06;;;;;;;11.90;2.88;;;;;;;12.40;100.00;100342.28;4918843;29;20111;-95
2022/10/27 05:51:33;;;;;;;16.55;3.70;;;;;;;12.10;100.00;100354.22;4928275;29;20059;-93
2022/10/27 05:53:59;;;;;;;16.40;2.58;;;;;;;12.00;100.00;100337.25;4920876;29;20056;-94
2022/10/27 05:56:26;;;;;;;12.68;3.22;;;;;;;12.05;100.00;100352.78;4924107;29;20059;-92
2022/10/27 05:58:53;;;;;;;10.23;2.20;;;;;;;11.84;100.00;100326.63;4904034;29;20057;-93
2022/10/27 06:01:20;;;;;;;10.88;2.38;;;;;;;12.23;100.00;100385.13;4910363;29;20060;-90
2022/10/27 06:03:47;;;;;;;10.10;2.00;;;;;;;12.11;100.00;100368.19;4918657;29;20056;-91
2022/10/27 06:06:13;;;;;;;12.77;2.53;;;;;;;12.14;100.00;100363.66;4929704;29;20052;-89
2022/10/27 06:08:40;;;;;;;12.07;2.72;;;;;;;12.10;100.00;100350.78;4920325;29;20364;-89
2022/10/27 06:11:07;;;;;;;9.00;1.83;;;;;;;12.16;100.00;100368.81;4921902;29;20048;-89
2022/10/27 06:13:34;;;;;;;10.70;2.42;;;;;;;11.93;100.00;100357.72;4916970;29;20059;-92
2022/10/27 06:16:00;;;;;;;12.13;2.40;;;;;;;11.87;100.00;100351.88;4930105;29;20060;-90
2022/10/27 06:18:27;;;;;;;14.75;2.47;;;;;;;12.08;100.00;100399.88;4917798;29;20048;-90
2022/10/27 06:20:54;;;;;;;11.30;2.58;;;;;;;12.01;100.00;100391.44;4914413;29;20685;-92
2022/10/27 06:23:21;;;;;;;12.63;2.35;;;;;;;11.99;100.00;100372.31;4917621;29;20111;-91
2022/10/27 06:25:47;;;;;;;15.50;2.65;;;;;;;12.06;100.00;100383.34;4918649;29;20133;-91
2022/10/27 06:28:14;;;;;;;12.68;2.63;;;;;;;12.18;100.00;100408.13;4914812;29;20116;-92
2022/10/27 06:30:42;;;;;;;10.80;2.33;;;;;;;11.93;100.00;100356.84;4921717;29;20063;-91
2022/10/27 06:33:09;;;;;;;11.35;2.72;;;;;;;12.04;100.00;100356.31;4931686;29;20051;-91
2022/10/27 06:35:36;;;;;;;10.07;2.33;;;;;;;12.07;100.00;100359.63;4927110;29;20052;-90
2022/10/27 06:38:03;;;;;;;16.70;3.50;;;;;;;11.86;100.00;100339.69;4941918;29;20063;-91
2022/10/27 06:40:30;;;;;;;18.05;3.13;;;;;;;11.88;100.00;100343.94;4932216;29;20098;-91
2022/10/27 06:42:57;;;;;;;16.38;4.15;;;;;;;12.04;100.00;100344.06;4924798;29;20052;-92
2022/10/27 06:45:33;;;;;;;16.35;3.03;;;;;;;11.85;100.00;100323.09;4914815;29;20132;-91
2022/10/27 06:48:00;;;;;;;14.73;3.05;;;;;;;11.98;100.00;100364.50;4919599;29;20070;-90
2022/10/27 06:50:28;;;;;;;10.50;2.50;;;;;;;12.08;100.00;100371.84;4937695;29;20067;-92
2022/10/27 06:52:55;;;;;;;13.75;3.13;;;;;;;11.86;100.00;100350.16;4935503;29;20467;-91
2022/10/27 06:55:22;;;;;;;9.15;1.73;;;;;;;12.03;100.00;100368.59;4932100;29;20047;-92
2022/10/27 06:57:50;;;;;;;12.35;2.80;;;;;;;11.88;100.00;100346.56;4945773;29;20090;-91
2022/10/27 07:00:18;;;;;;;9.43;1.80;;;;;;;12.03;100.00;100365.13;4938986;29;20079;-91
2022/10/27 07:02:47;;;;;;;8.20;2.00;;;;;;;12.06;100.00;100378.94;4913513;29;20055;-92
2022/10/27 07:05:18;;;;;;;15.13;2.67;;;;;;;12.05;100.00;100392.97;4939939;29;20112;-91
2022/10/27 07:07:47;;;;;;;11.00;2.35;;;;;;;11.98;100.00;100378.47;4936218;29;20142;-91
2022/10/27 07:10:15;;;;;;;11.82;2.42;;;;;;;12.01;100.00;100407.19;4922328;29;20048;-91
2022/10/27 07:12:51;;;;;;;8.10;2.28;;;;;;;11.96;100.00;100333.94;4928883;29;20044;-90
2022/10/27 07:15:19;;;;;;;13.82;2.60;;;;;;;12.05;100.00;100344.91;4924783;29;20115;-92
2022/10/27 07:17:47;;;;;;;8.38;2.35;;;;;;;12.28;100.00;100386.59;4924808;29;20518;-90
2022/10/27 07:20:14;;;;;;;9.43;2.78;;;;;;;12.18;100.00;100353.00;4924289;29;20048;-89
2022/10/27 07:22:41;;;;;;;12.85;2.80;;;;;;;12.28;100.00;100373.44;4942553;29;20048;-92
2022/10/27 07:25:08;;;;;;;11.90;2.65;;;;;;;12.37;100.00;100381.81;4929793;29;20052;-90
2022/10/27 07:27:39;;;;;;;9.00;2.05;;;;;;;12.00;100.00;100323.28;4925355;29;20135;-92
2022/10/27 07:30:13;;;;;;;7.88;1.67;;;;;;;12.12;100.00;100348.91;4923629;29;20056;-91
2022/10/27 07:32:55;;;;;;;;;;;;;;;;;;;;;
2022/10/27 07:35:36;;;;;;;12.00;2.42;;;;;;;11.95;100.00;100313.88;4934009;29;20079;-90
2022/10/27 07:38:06;;;;;;;12.02;3.05;;;;;;;12.56;100.00;100407.97;4930371;29;20060;-92
2022/10/27 07:40:39;;;;;;;15.25;2.83;;;;;;;12.29;100.00;100351.53;4934100;29;20099;-90
2022/10/27 07:43:06;;;;;;;14.40;2.75;;;;;;;12.83;100.00;100450.38;4929481;29;20048;-91
2022/10/27 07:45:40;;;;;;;19.83;3.15;;;;;;;12.59;100.00;100382.41;4931093;29;20079;-90
2022/10/27 07:48:11;;;;;;;13.63;2.50;;;;;;;12.18;100.00;100359.09;4928399;29;20056;-90
2022/10/27 07:50:38;;;;;;;11.52;2.10;;;;;;;12.34;100.00;100402.03;4928196;29;20056;-92
2022/10/27 07:53:06;;;;;;;17.38;3.10;;;;;;;12.91;100.00;100428.00;4912844;29;20072;-90
2022/10/27 07:55:35;;;;;;;8.68;2.17;;;;;;;12.88;100.00;100401.06;4927189;29;20059;-91
2022/10/27 07:58:08;;;;;;;9.50;1.75;;;;;;;13.24;100.00;100423.69;4927250;29;20099;-91
2022/10/27 08:00:37;;;;;;;12.37;3.10;;;;;;;13.16;100.00;100426.72;4927810;29;20506;-91
2022/10/27 08:03:07;;;;;;;11.10;2.38;;;;;;;13.10;100.00;100393.75;4933238;29;20058;-92
2022/10/27 08:05:42;;;;;;;11.95;2.58;;;;;;;13.07;100.00;100408.81;4932851;29;20070;-90
2022/10/27 08:08:11;;;;;;;9.68;2.53;;;;;;;13.29;100.00;100422.50;4932120;29;20111;-90
2022/10/27 08:10:42;;;;;;;13.25;2.88;;;;;;;12.93;100.00;100383.28;4933572;29;20055;-90
2022/10/27 08:13:20;;;;;;;15.02;3.22;;;;;;;12.58;100.00;100320.28;4944761;29;20032;-92
2022/10/27 08:16:00;;;;;;;18.20;3.35;;;;;;;12.42;100.00;100285.28;4921897;29;20052;-91
2022/10/27 08:18:36;;;;;;;28.08;4.78;;;;;;;12.81;100.00;100350.59;4939633;29;20075;-90
2022/10/27 08:21:04;;;;;;;17.00;3.22;;;;;;;13.14;100.00;100401.44;4934866;29;20063;-91
2022/10/27 08:23:45;;;;;;;32.97;4.90;;;;;;;13.37;100.00;100435.28;4933670;29;20636;-91
2022/10/27 08:26:15;;;;;;;30.42;4.95;;;;;;;13.05;100.00;100408.91;4932418;29;20063;-92
2022/10/27 08:28:43;;;;;;;26.13;5.28;;;;;;;13.03;100.00;100416.03;4948454;29;20111;-91
2022/10/27 08:31:21;;;;;;;32.08;6.38;;;;;;;13.30;100.00;100436.50;4921058;29;20056;-91
2022/10/27 08:33:58;;;;;;;26.45;6.38;;;;;;;13.23;100.00;100387.81;4943445;29;20125;-91
2022/10/27 08:36:38;;;;;;;28.90;5.35;;;;;;;12.71;100.00;100329.25;4923171;29;20052;-91
2022/10/27 08:39:08;;;;;;;31.20;5.80;;;;;;;12.80;100.00;100342.78;4915215;29;20056;-91
2022/10/27 08:42:00;;;;;;;27.00;5.13;;;;;;;13.55;100.00;100467.63;4918085;29;20084;-91
2022/10/27 08:44:46;;;;;;;22.27;4.88;;;;;;;13.30;100.00;100418.94;4932242;29;20051;-93
2022/10/27 08:47:27;;;;;;;21.20;3.88;;;;;;;13.54;100.00;100431.72;4932438;29;20059;-90
2022/10/27 08:50:17;;;;;;;33.58;5.60;;;;;;;13.76;100.00;100462.13;4948721;29;20074;-91
2022/10/27 08:52:56;;;;;;;30.38;6.20;;;;;;;13.58;100.00;100438.53;4928349;29;20056;-90
2022/10/27 08:55:34;;;;;;;25.38;5.32;;;;;;;13.86;100.00;100472.06;4925653;29;20463;-90
2022/10/27 08:58:14;;;;;;;28.88;5.28;;;;;;;13.88;100.00;100465.84;4924919;29;20055;-90
2022/10/27 09:00:51;;;;;;;23.85;5.32;;;;;;;13.74;100.00;100432.38;4926155;29;20107;-90
2022/10/27 09:03:30;;;;;;;25.25;5.05;;;;;;;13.82;100.00;100461.78;4922899;29;20143;-90
2022/10/27 09:06:09;;;;;;;28.92;4.95;;;;;;;13.86;100.00;100461.53;4925069;29;20513;-90
2022/10/27 09:09:18;;;;;;;27.33;5.88;;;;;;;13.91;100.00;100463.88;4933383;29;20126;-89
2022/10/27 09:11:54;;;;;;;28.52;5.25;;;;;;;13.77;100.00;100466.44;4938153;29;20147;-90
2022/10/27 09:14:59;;;;;;;24.20;5.50;;;;;;;13.89;100.00;100457.03;4934397;29;20067;-89
2022/10/27 09:17:33;;;;;;;28.40;5.78;;;;;;;13.48;100.00;100400.50;4926573;29;20056;-89
2022/10/27 09:20:18;;;;;;;22.77;4.72;;;;;;;14.00;100.00;100444.09;4929139;29;20060;-89
2022/10/27 09:22:49;;;;;;;29.08;4.60;;;;;;;13.67;100.00;100445.06;4925560;29;20052;-90
2022/10/27 09:25:19;;;;;;;29.95;5.60;;;;;;;13.80;100.00;100439.97;4927159;29;20052;-90
2022/10/27 09:27:51;;;;;;;21.77;4.43;;;;;;;13.69;100.00;100422.16;4925769;29;20048;-89
2022/10/27 09:30:19;;;;;;;22.83;4.23;;;;;;;13.88;100.00;100463.22;4925663;29;20055;-90
2022/10/27 09:32:50;;;;;;;24.60;5.30;;;;;;;13.57;100.00;100399.97;4912796;29;20282;-90
2022/10/27 09:35:22;;;;;;;23.33;4.30;;;;;;;13.43;100.00;100358.66;4926417;29;20052;-90
2022/10/27 09:37:55;;;;;;;22.10;4.70;;;;;;;13.28;100.00;100378.75;4923444;29;20494;-89
2022/10/27 09:40:31;;;;;;;24.38;4.13;;;;;;;13.77;100.00;100435.69;4920588;29;20050;-88
2022/10/27 09:42:59;;;;;;;25.33;5.10;;;;;;;14.02;100.00;100421.16;4921573;29;20055;-88
2022/10/27 09:45:28;;;;;;;26.10;4.78;;;;;;;14.07;100.00;100427.00;4895276;29;20107;-90
2022/10/27 09:48:05;;;;;;;20.13;4.97;;;;;;;14.07;100.00;100441.97;4931074;29;20052;-88
2022/10/27 09:50:50;;;;;;;20.60;4.72;;;;;;;14.34;100.00;100466.72;4910983;29;20060;-89
2022/10/27 09:53:42;;;;;;;24.42;5.60;;;;;;;14.24;100.00;100481.34;4914596;29;20057;-90
2022/10/27 09:56:13;;;;;;;24.10;4.85;;;;;;;13.89;100.00;100464.91;4923156;29;20059;-89
2022/10/27 09:58:57;;;;;;;22.67;4.90;;;;;;;13.80;100.00;100430.28;4925675;29;20119;-89
2022/10/27 10:01:26;;;;;;;24.75;5.13;;;;;;;13.49;100.00;100423.22;4921808;29;20052;-89
2022/10/27 10:04:05;;;;;;;24.70;5.30;;;;;;;13.60;100.00;100448.97;4925795;29;20134;-89
2022/10/27 10:06:39;;;;;;;31.10;6.70;;;;;;;13.59;100.00;100434.09;4921455;29;20112;-89
2022/10/27 10:09:33;;;;;;;28.33;5.85;;;;;;;13.91;100.00;100457.78;4915019;29;20059;-90
2022/10/27 10:12:11;;;;;;;18.85;4.35;;;;;;;14.01;100.00;100474.75;4911637;29;20063;-90
2022/10/27 10:14:43;;;;;;;18.05;4.30;;;;;;;13.95;100.00;100452.28;4925642;29;20122;-89
2022/10/27 10:17:23;;;;;;;25.63;4.90;;;;;;;13.94;100.00;100437.41;4925221;29;20169;-89
2022/10/27 10:19:53;;;;;;;19.17;4.50;;;;;;;13.93;100.00;100409.38;4920993;29;20502;-89
2022/10/27 10:22:31;;;;;;;21.58;4.93;;;;;;;14.15;100.00;100424.81;4906352;29;20538;-89
2022/10/27 10:25:19;;;;;;;15.77;3.47;;;;;;;14.32;100.00;100447.50;4920638;29;20051;-90
2022/10/27 10:27:55;;;;;;;18.65;4.18;;;;;;;14.04;100.00;100433.31;4922897;29;20479;-89
2022/10/27 10:30:22;;;;;;;17.88;3.85;;;;;;;13.97;100.00;100446.88;4903879;29;20056;-89
2022/10/27 10:32:53;;;;;;;21.23;5.00;;;;;;;14.09;100.00;100464.63;4907832;29;20080;-89
2022/10/27 10:35:38;;;;;;;25.67;3.95;;;;;;;14.43;100.00;100470.63;4932410;29;20052;-90
2022/10/27 10:38:24;;;;;;;21.98;4.75;;;;;;;14.10;100.00;100463.72;4922665;29;20135;-89
2022/10/27 10:41:15;;;;;;;17.80;3.63;;;;;;;14.03;100.00;100431.59;4934442;29;20048;-86
2022/10/27 10:43:43;;;;;;;18.42;4.30;;;;;;;14.01;100.00;100449.28;4930624;29;20048;-90
2022/10/27 10:46:31;;;;;;;22.52;4.82;;;;;;;14.15;100.00;100452.94;4929608;29;20056;-91
2022/10/27 10:49:24;;;;;;;20.52;3.95;;;;;;;14.54;100.00;100444.50;4920209;29;20056;-91
2022/10/27 10:52:05;;;;;;;18.55;3.55;;;;;;;14.45;100.00;100445.03;4933715;29;20067;-91
2022/10/27 10:54:39;;;;;;;22.60;4.95;;;;;;;14.21;100.00;100381.47;5104004;23;20509;-89
2022/10/27 10:57:32;;;;;;;17.80;4.03;;;;;;;14.77;100.00;100460.78;4954077;29;20027;-94
2022/10/27 11:00:18;;;;;;;16.25;3.50;;;;;;;14.65;100.00;100419.34;4955096;28;20054;-92
2022/10/27 11:03:12;;;;;;;16.90;3.45;;;;;;;14.56;100.00;100421.53;4940583;29;20494;-94
2022/10/27 11:05:56;;;;;;;23.98;4.43;;;;;;;14.64;100.00;100447.44;4954586;29;20050;-93
2022/10/27 11:08:41;;;;;;;14.82;3.67;;;;;;;14.86;100.00;100454.94;4940881;29;20052;-94
2022/10/27 11:11:27;;;;;;;33.90;6.22;;;;;;;14.29;100.00;100455.63;4940608;29;20058;-92
2022/10/27 11:14:15;;;;;;;20.50;4.32;;;;;;;14.32;100.00;100447.50;4955491;29;20044;-93
2022/10/27 11:17:00;;;;;;;18.20;4.93;;;;;;;14.51;100.00;100451.72;4952734;29;20059;-90
2022/10/27 11:19:35;;;;;;;19.30;4.03;;;;;;;14.53;100.00;100420.88;4965935;28;20055;-91
2022/10/27 11:22:10;;;;;;;20.88;4.47;;;;;;;14.43;100.00;100417.94;4951079;29;20098;-90
2022/10/27 11:25:05;;;;;;;19.17;4.10;;;;;;;14.43;100.00;100388.97;4930238;28;20122;-90
2022/10/27 11:28:10;;;;;;;22.38;4.43;;;;;;;14.74;100.00;100405.59;4932370;29;20051;-90
2022/10/27 11:30:47;;;;;;;16.02;3.50;;;;;;;14.59;100.00;100400.31;4937299;29;20048;-90
2022/10/27 11:33:41;;;;;;;26.63;6.10;;;;;;;14.75;100.00;100407.28;4938493;29;20055;-89
2022/10/27 11:36:15;;;;;;;27.23;5.60;;;;;;;14.64;100.00;100410.56;4927433;29;20047;-90
2022/10/27 11:38:55;;;;;;;;;;;;;;;14.99;100.00;100412.88;4945067;29;20062;-91